createdAt,value
2017-12-27T00:04:51.042Z,0.00
2017-12-27T00:15:18.350Z,0.00
2017-12-27T00:25:45.647Z,0.00
2017-12-27T00:36:12.798Z,0.00
2017-12-27T00:46:40.054Z,0.00
2017-12-27T00:57:06.879Z,0.00
2017-12-27T01:07:33.981Z,0.00
2017-12-27T01:18:00.767Z,0.00
2017-12-27T01:28:27.686Z,0.00
2017-12-27T01:38:54.673Z,0.00
2017-12-27T01:49:21.676Z,0.00
2017-12-27T01:59:48.651Z,0.00
2017-12-27T02:10:15.579Z,0.00
2017-12-27T02:20:42.042Z,0.00
2017-12-27T02:31:09.521Z,0.00
2017-12-27T02:41:36.538Z,0.00
2017-12-27T02:52:03.911Z,0.00
2017-12-27T03:02:30.629Z,0.00
2017-12-27T03:12:58.219Z,0.00
2017-12-27T03:23:24.780Z,0.00
2017-12-27T03:33:51.328Z,0.00
2017-12-27T03:44:18.880Z,0.00
2017-12-27T03:54:45.366Z,0.00
2017-12-27T04:05:12.637Z,0.00
2017-12-27T04:15:40.104Z,0.00
2017-12-27T04:26:07.226Z,0.00
2017-12-27T04:36:33.929Z,0.00
2017-12-27T04:47:01.089Z,0.00
2017-12-27T04:57:28.813Z,0.00
2017-12-27T05:07:56.066Z,0.00
2017-12-27T05:18:23.284Z,0.00
2017-12-27T05:28:50.176Z,0.00
2017-12-27T05:39:17.949Z,0.00
2017-12-27T05:49:44.854Z,0.00
2017-12-27T06:00:12.216Z,0.00
2017-12-27T06:10:40.128Z,0.00
2017-12-27T06:21:07.557Z,0.00
2017-12-27T06:31:35.019Z,0.00
2017-12-27T06:42:02.453Z,0.00
2017-12-27T06:52:29.873Z,0.00
2017-12-27T07:02:57.250Z,4.00
2017-12-27T07:13:24.628Z,16.00
2017-12-27T07:23:52.014Z,52.00
2017-12-27T07:34:19.446Z,124.00
2017-12-27T07:44:46.796Z,268.00
2017-12-27T07:55:14.302Z,392.00
2017-12-27T08:05:41.605Z,468.00
2017-12-27T08:16:08.488Z,712.00
2017-12-27T08:26:36.374Z,1000.00
2017-12-27T08:37:03.830Z,876.00
2017-12-27T08:48:44.172Z,1288.00
2017-12-27T08:59:10.601Z,1764.00
2017-12-27T09:09:38.181Z,2132.00
2017-12-27T09:20:06.737Z,1860.00
2017-12-27T09:30:33.391Z,1776.00
2017-12-27T09:41:01.518Z,4072.00
2017-12-27T09:51:29.902Z,3080.00
2017-12-27T10:01:56.709Z,3680.00
2017-12-27T10:12:24.649Z,3564.00
2017-12-27T10:22:52.649Z,4816.00
2017-12-27T10:33:20.553Z,4808.00
2017-12-27T10:43:48.725Z,4048.00
2017-12-27T10:54:16.758Z,7220.00
2017-12-27T11:04:44.989Z,5704.00
2017-12-27T11:15:13.282Z,4316.00
2017-12-27T11:25:41.548Z,4852.00
2017-12-27T11:36:09.982Z,4144.00
2017-12-27T11:46:38.109Z,5372.00
2017-12-27T11:57:06.298Z,3400.00
2017-12-27T12:07:34.558Z,5380.00
2017-12-27T12:18:02.788Z,2540.00
2017-12-27T12:28:30.979Z,4388.00
2017-12-27T12:38:59.228Z,6108.00
2017-12-27T12:59:55.957Z,4412.00
2017-12-27T13:10:24.287Z,3076.00
2017-12-27T13:31:20.959Z,3504.00
2017-12-27T13:41:49.235Z,2588.00
2017-12-27T13:52:17.246Z,1788.00
2017-12-27T14:02:45.729Z,2000.00
2017-12-27T14:13:13.927Z,2612.00
2017-12-27T14:23:42.031Z,2324.00
2017-12-27T14:34:10.644Z,2068.00
2017-12-27T14:44:38.523Z,1004.00
2017-12-27T14:55:06.509Z,424.00
2017-12-27T15:05:34.603Z,288.00
2017-12-27T15:16:02.726Z,116.00
2017-12-27T15:26:30.951Z,56.00
2017-12-27T15:36:58.843Z,32.00
2017-12-27T15:47:26.840Z,4.00
2017-12-27T15:57:54.370Z,0.00
2017-12-27T16:08:22.867Z,0.00
2017-12-27T16:18:50.907Z,0.00
2017-12-27T16:29:18.965Z,0.00
2017-12-27T16:39:46.908Z,0.00
2017-12-27T16:50:14.944Z,0.00
2017-12-27T17:00:42.894Z,0.00
2017-12-27T17:11:10.838Z,0.00
2017-12-27T17:21:38.832Z,0.00
2017-12-27T17:32:06.965Z,0.00
2017-12-27T17:42:34.739Z,0.00
2017-12-27T17:53:02.619Z,0.00
2017-12-27T18:03:30.471Z,0.00
2017-12-27T18:13:58.318Z,0.00
2017-12-27T18:24:26.161Z,0.00
2017-12-27T18:34:53.922Z,0.00
2017-12-27T18:45:21.687Z,0.00
2017-12-27T18:55:49.434Z,0.00
2017-12-27T19:06:17.233Z,0.00
2017-12-27T19:16:45.027Z,0.00
2017-12-27T19:27:13.080Z,0.00
2017-12-27T19:37:40.646Z,0.00
2017-12-27T19:48:08.500Z,0.00
2017-12-27T19:58:36.285Z,0.00
2017-12-27T20:09:04.176Z,0.00
2017-12-27T20:19:31.927Z,0.00
2017-12-27T20:29:59.752Z,0.00
2017-12-27T20:40:27.593Z,0.00
2017-12-27T20:50:55.392Z,0.00
2017-12-27T21:01:23.160Z,0.00
2017-12-27T21:11:51.060Z,0.00
2017-12-27T21:22:18.780Z,0.00
2017-12-27T21:32:46.556Z,0.00
2017-12-27T21:43:14.302Z,0.00
2017-12-27T21:53:42.223Z,0.00
2017-12-27T22:04:09.783Z,0.00
2017-12-27T22:14:37.446Z,0.00
2017-12-27T22:25:05.128Z,0.00
2017-12-27T22:35:32.775Z,0.00
2017-12-27T22:46:00.511Z,0.00
2017-12-27T22:56:28.196Z,0.00
2017-12-27T23:06:55.747Z,0.00
2017-12-27T23:17:23.781Z,0.00
2017-12-27T23:27:51.351Z,0.00
2017-12-27T23:38:19.090Z,0.00
2017-12-27T23:48:46.618Z,0.00
2017-12-27T23:59:14.407Z,0.00
